Dades meteomassalio
Diari Summary for Nil La, TWC- Units:  Both    English   Metric
« Previous Day
Next Day »
Diari Semanal Mensual Anual Personalitzat
  Maxima: Minima: Mijana:
Temperatura: TemperatureC °F /  -17.8 °C 9.4 °F /  -12.6 °C 12.4 °F /  -10.9 °C
Rosada: DewpointC °F /  -17.8 °C 8.1 °F /  -13.3 °C 10.5 °F /  -11.9 °C
Humitat: Humidity % 67 % 88 %
Velocitat del vent: WindSpeedKMH mph /  0 km/h - 0 mph /  0 km/h
Racha vent: WindSpeedGustKMH mph /  0 km/h - -
Vent:- - North
Pressio: PressurehPa in /  0 hPa 1017.9 in /  34466.1 hPa -
Pluja: 1.5 in /  38.1 mm    
Historical Graphs
 
 
Tabular Data for Nil La, TWC-
Time Temperature Dew Point Pressure Wind Wind Speed Wind Gust Humidity Rainfall Rate (Hourly) solar Conditions
TemperatureC °F /  -17.8 °C DewpointC °F /  -17.8 °C PressurehPa in /  0 hPa Calm     Humidity % HourlyPrecipMM in /  0 mm SolarRadiationWatts/m^2 W/m2 Conditions
00:04 10.0 °F /  -12.2 °C 8.6 °F /  -13 °C 1020.8 in /  34564.3 hPa Calm     91 % 0.0 in /  0 mm 0.00 W/m2 RA
00:09 10.0 °F /  -12.2 °C 8.6 °F /  -13 °C 1020.7 in /  34560.9 hPa Calm     91 % 0.0 in /  0 mm 0.00 W/m2 CLR
00:14 10.0 °F /  -12.2 °C 8.6 °F /  -13 °C 1020.7 in /  34560.9 hPa Calm     91 % 0.0 in /  0 mm 0.00 W/m2 CLR
00:19 10.0 °F /  -12.2 °C 8.6 °F /  -13 °C 1020.8 in /  34564.3 hPa Calm     91 % 0.0 in /  0 mm 0.00 W/m2 CLR
00:24 10.0 °F /  -12.2 °C 8.6 °F /  -13 °C 1020.7 in /  34560.9 hPa Calm     91 % 0.0 in /  0 mm 0.00 W/m2 CLR
00:29 10.0 °F /  -12.2 °C 8.6 °F /  -13 °C 1020.6 in /  34557.5 hPa Calm     91 % 0.0 in /  0 mm 0.00 W/m2 CLR
00:34 10.0 °F /  -12.2 °C 8.6 °F /  -13 °C 1020.5 in /  34554.1 hPa Calm     91 % 0.0 in /  0 mm 0.00 W/m2 CLR
00:39 10.0 °F /  -12.2 °C 8.6 °F /  -13 °C 1020.5 in /  34554.1 hPa Calm     91 % 0.0 in /  0 mm 0.00 W/m2 CLR
00:44 10.6 °F /  -11.9 °C 9.2 °F /  -12.7 °C 1020.6 in /  34557.5 hPa Calm     91 % 0.0 in /  0 mm 0.00 W/m2 CLR
00:49 10.6 °F /  -11.9 °C 9.0 °F /  -12.8 °C 1020.6 in /  34557.5 hPa Calm     90 % 0.0 in /  0 mm 0.00 W/m2 CLR
00:54 10.6 °F /  -11.9 °C 9.2 °F /  -12.7 °C 1020.6 in /  34557.5 hPa Calm     91 % 0.0 in /  0 mm 0.00 W/m2 CLR
00:59 10.6 °F /  -11.9 °C 9.2 °F /  -12.7 °C 1020.5 in /  34554.1 hPa Calm     91 % 0.0 in /  0 mm 0.00 W/m2 CLR
01:04 10.0 °F /  -12.2 °C 8.6 °F /  -13 °C 1020.5 in /  34554.1 hPa Calm     91 % 0.0 in /  0 mm 0.00 W/m2 CLR
01:09 10.0 °F /  -12.2 °C 8.6 °F /  -13 °C 1020.4 in /  34550.7 hPa Calm     91 % 0.0 in /  0 mm 0.00 W/m2 CLR
01:14 10.0 °F /  -12.2 °C 8.6 °F /  -13 °C 1020.4 in /  34550.7 hPa Calm     91 % 0.0 in /  0 mm 0.00 W/m2 CLR
01:19 10.6 °F /  -11.9 °C 9.2 °F /  -12.7 °C 1020.4 in /  34550.7 hPa Calm     91 % 0.0 in /  0 mm 0.00 W/m2 CLR
01:24 10.6 °F /  -11.9 °C 9.2 °F /  -12.7 °C 1020.4 in /  34550.7 hPa Calm     91 % 0.0 in /  0 mm 0.00 W/m2 CLR
01:29 10.6 °F /  -11.9 °C 9.2 °F /  -12.7 °C 1020.4 in /  34550.7 hPa Calm     91 % 0.0 in /  0 mm 0.00 W/m2 CLR
01:34 10.0 °F /  -12.2 °C 8.6 °F /  -13 °C 1020.4 in /  34550.7 hPa Calm     91 % 0.0 in /  0 mm 0.00 W/m2 CLR
01:39 10.0 °F /  -12.2 °C 8.6 °F /  -13 °C 1020.3 in /  34547.4 hPa Calm     91 % 0.0 in /  0 mm 0.00 W/m2 CLR
01:44 10.0 °F /  -12.2 °C 8.6 °F /  -13 °C 1020.4 in /  34550.7 hPa Calm     91 % 0.0 in /  0 mm 0.00 W/m2 CLR
01:49 9.4 °F /  -12.6 °C 8.1 °F /  -13.3 °C 1020.3 in /  34547.4 hPa Calm     91 % 0.0 in /  0 mm 0.00 W/m2 CLR
01:54 9.4 °F /  -12.6 °C 8.1 °F /  -13.3 °C 1020.4 in /  34550.7 hPa Calm     91 % 0.0 in /  0 mm 0.00 W/m2 CLR
01:59 9.4 °F /  -12.6 °C 8.1 °F /  -13.3 °C 1020.3 in /  34547.4 hPa Calm     91 % 0.0 in /  0 mm 0.00 W/m2 CLR
02:04 9.4 °F /  -12.6 °C 8.2 °F /  -13.2 °C 1020.2 in /  34544 hPa Calm     92 % 0.0 in /  0 mm 0.00 W/m2 CLR
02:09 9.4 °F /  -12.6 °C 8.2 °F /  -13.2 °C 1020.2 in /  34544 hPa Calm     92 % 0.0 in /  0 mm 0.00 W/m2 CLR
02:14 10.0 °F /  -12.2 °C 8.8 °F /  -12.9 °C 1020.1 in /  34540.6 hPa Calm     92 % 0.0 in /  0 mm 0.00 W/m2 CLR
02:19 10.0 °F /  -12.2 °C 8.8 °F /  -12.9 °C 1020.2 in /  34544 hPa Calm     92 % 0.0 in /  0 mm 0.00 W/m2 CLR
02:24 10.0 °F /  -12.2 °C 8.8 °F /  -12.9 °C 1020.2 in /  34544 hPa Calm     92 % 0.0 in /  0 mm 0.00 W/m2 CLR
02:29 10.6 °F /  -11.9 °C 9.3 °F /  -12.6 °C 1020.0 in /  34537.2 hPa Calm     92 % 0.0 in /  0 mm 0.00 W/m2 CLR
02:34 10.6 °F /  -11.9 °C 9.3 °F /  -12.6 °C 1020.0 in /  34537.2 hPa Calm     92 % 0.0 in /  0 mm 0.00 W/m2 CLR
02:39 10.6 °F /  -11.9 °C 9.3 °F /  -12.6 °C 1020.0 in /  34537.2 hPa Calm     92 % 0.0 in /  0 mm 0.00 W/m2 CLR
02:44 10.6 °F /  -11.9 °C 9.3 °F /  -12.6 °C 1020.1 in /  34540.6 hPa Calm     92 % 0.0 in /  0 mm 0.00 W/m2 CLR
02:49 10.6 °F /  -11.9 °C 9.3 °F /  -12.6 °C 1020.1 in /  34540.6 hPa Calm     92 % 0.0 in /  0 mm 0.00 W/m2 CLR
02:54 10.6 °F /  -11.9 °C 9.3 °F /  -12.6 °C 1020.0 in /  34537.2 hPa Calm     92 % 0.0 in /  0 mm 0.00 W/m2 CLR
02:59 10.6 °F /  -11.9 °C 9.3 °F /  -12.6 °C 1020.0 in /  34537.2 hPa Calm     92 % 0.0 in /  0 mm 0.00 W/m2 CLR
03:04 10.6 °F /  -11.9 °C 9.3 °F /  -12.6 °C 1020.0 in /  34537.2 hPa Calm     92 % 0.0 in /  0 mm 0.00 W/m2 CLR
03:09 10.6 °F /  -11.9 °C 9.3 °F /  -12.6 °C 1020.0 in /  34537.2 hPa Calm     92 % 0.0 in /  0 mm 0.00 W/m2 CLR
03:14 10.6 °F /  -11.9 °C 9.3 °F /  -12.6 °C 1019.9 in /  34533.8 hPa Calm     92 % 0.0 in /  0 mm 0.00 W/m2 CLR
03:19 10.6 °F /  -11.9 °C 9.3 °F /  -12.6 °C 1019.8 in /  34530.4 hPa Calm     92 % 0.0 in /  0 mm 0.00 W/m2 CLR
03:24 10.6 °F /  -11.9 °C 9.3 °F /  -12.6 °C 1019.8 in /  34530.4 hPa Calm     92 % 0.0 in /  0 mm 0.00 W/m2 CLR
03:29 10.0 °F /  -12.2 °C 8.8 °F /  -12.9 °C 1019.9 in /  34533.8 hPa Calm     92 % 0.0 in /  0 mm 0.00 W/m2 CLR
03:34 10.0 °F /  -12.2 °C 8.8 °F /  -12.9 °C 1019.9 in /  34533.8 hPa Calm     92 % 0.0 in /  0 mm 0.00 W/m2 CLR
03:39 10.0 °F /  -12.2 °C 8.8 °F /  -12.9 °C 1019.8 in /  34530.4 hPa Calm     92 % 0.0 in /  0 mm 0.00 W/m2 CLR
03:44 9.4 °F /  -12.6 °C 8.2 °F /  -13.2 °C 1019.9 in /  34533.8 hPa Calm     92 % 0.0 in /  0 mm 0.00 W/m2 CLR
03:49 9.4 °F /  -12.6 °C 8.2 °F /  -13.2 °C 1019.9 in /  34533.8 hPa Calm     92 % 0.0 in /  0 mm 0.00 W/m2 CLR
03:54 10.0 °F /  -12.2 °C 8.8 °F /  -12.9 °C 1019.9 in /  34533.8 hPa Calm     92 % 0.0 in /  0 mm 0.00 W/m2 CLR
03:59 10.0 °F /  -12.2 °C 8.8 °F /  -12.9 °C 1019.8 in /  34530.4 hPa Calm     92 % 0.0 in /  0 mm 0.00 W/m2 CLR
04:04 10.0 °F /  -12.2 °C 8.8 °F /  -12.9 °C 1019.7 in /  34527 hPa Calm     92 % 0.0 in /  0 mm 0.00 W/m2 CLR
04:09 9.4 °F /  -12.6 °C 8.2 °F /  -13.2 °C 1019.7 in /  34527 hPa Calm     92 % 0.0 in /  0 mm 0.00 W/m2 CLR
04:14 9.4 °F /  -12.6 °C 8.2 °F /  -13.2 °C 1019.6 in /  34523.7 hPa Calm     92 % 0.0 in /  0 mm 0.00 W/m2 CLR
04:19 9.4 °F /  -12.6 °C 8.2 °F /  -13.2 °C 1019.7 in /  34527 hPa Calm     92 % 0.0 in /  0 mm 0.00 W/m2 CLR
04:24 9.4 °F /  -12.6 °C 8.2 °F /  -13.2 °C 1019.7 in /  34527 hPa Calm     92 % 0.0 in /  0 mm 0.00 W/m2 CLR
04:29 9.4 °F /  -12.6 °C 8.2 °F /  -13.2 °C 1019.7 in /  34527 hPa Calm     92 % 0.0 in /  0 mm 0.00 W/m2 CLR
04:34 9.4 °F /  -12.6 °C 8.2 °F /  -13.2 °C 1019.7 in /  34527 hPa Calm     92 % 0.0 in /  0 mm 0.00 W/m2 CLR
04:39 9.4 °F /  -12.6 °C 8.2 °F /  -13.2 °C 1019.7 in /  34527 hPa Calm     92 % 0.0 in /  0 mm 0.00 W/m2 CLR
04:44 9.4 °F /  -12.6 °C 8.2 °F /  -13.2 °C 1019.7 in /  34527 hPa Calm     92 % 0.0 in /  0 mm 0.00 W/m2 CLR
04:49 9.4 °F /  -12.6 °C 8.2 °F /  -13.2 °C 1019.8 in /  34530.4 hPa Calm     92 % 0.0 in /  0 mm 0.00 W/m2 CLR
04:54 9.4 °F /  -12.6 °C 8.2 °F /  -13.2 °C 1019.8 in /  34530.4 hPa Calm     92 % 0.0 in /  0 mm 0.00 W/m2 CLR
04:59 9.4 °F /  -12.6 °C 8.2 °F /  -13.2 °C 1019.8 in /  34530.4 hPa Calm     92 % 0.0 in /  0 mm 0.00 W/m2 CLR
05:04 10.0 °F /  -12.2 °C 8.9 °F /  -12.8 °C 1019.7 in /  34527 hPa Calm     93 % 0.0 in /  0 mm 0.00 W/m2 CLR
05:09 10.0 °F /  -12.2 °C 8.8 °F /  -12.9 °C 1019.6 in /  34523.7 hPa Calm     92 % 0.0 in /  0 mm 0.00 W/m2 CLR
05:14 10.0 °F /  -12.2 °C 8.8 °F /  -12.9 °C 1019.6 in /  34523.7 hPa Calm     92 % 0.0 in /  0 mm 0.00 W/m2 CLR
05:19 10.0 °F /  -12.2 °C 8.8 °F /  -12.9 °C 1019.6 in /  34523.7 hPa Calm     92 % 0.0 in /  0 mm 0.00 W/m2 CLR
05:24 10.0 °F /  -12.2 °C 8.8 °F /  -12.9 °C 1019.7 in /  34527 hPa Calm     92 % 0.0 in /  0 mm 0.00 W/m2 CLR
05:29 10.0 °F /  -12.2 °C 8.8 °F /  -12.9 °C 1019.7 in /  34527 hPa Calm     92 % 0.0 in /  0 mm 0.00 W/m2 CLR
05:34 10.0 °F /  -12.2 °C 8.9 °F /  -12.8 °C 1019.7 in /  34527 hPa Calm     93 % 0.0 in /  0 mm 0.00 W/m2 CLR
05:39 10.0 °F /  -12.2 °C 8.8 °F /  -12.9 °C 1019.6 in /  34523.7 hPa Calm     92 % 0.0 in /  0 mm 0.00 W/m2 CLR
05:44 10.0 °F /  -12.2 °C 8.8 °F /  -12.9 °C 1019.6 in /  34523.7 hPa Calm     92 % 0.0 in /  0 mm 0.00 W/m2 CLR
05:49 10.0 °F /  -12.2 °C 8.8 °F /  -12.9 °C 1019.6 in /  34523.7 hPa Calm     92 % 0.0 in /  0 mm 0.00 W/m2 CLR
05:54 10.0 °F /  -12.2 °C 8.8 °F /  -12.9 °C 1019.7 in /  34527 hPa Calm     92 % 0.0 in /  0 mm 0.00 W/m2 CLR
05:59 10.0 °F /  -12.2 °C 8.9 °F /  -12.8 °C 1019.8 in /  34530.4 hPa Calm     93 % 0.0 in /  0 mm 0.00 W/m2 CLR
06:04 10.0 °F /  -12.2 °C 8.8 °F /  -12.9 °C 1019.8 in /  34530.4 hPa Calm     92 % 0.0 in /  0 mm 0.00 W/m2 CLR
06:09 10.6 °F /  -11.9 °C 9.4 °F /  -12.6 °C 1019.9 in /  34533.8 hPa Calm     93 % 0.0 in /  0 mm 0.00 W/m2 CLR
06:14 10.6 °F /  -11.9 °C 9.4 °F /  -12.6 °C 1019.9 in /  34533.8 hPa Calm     93 % 0.0 in /  0 mm 0.00 W/m2 CLR
06:19 10.6 °F /  -11.9 °C 9.4 °F /  -12.6 °C 1020.1 in /  34540.6 hPa Calm     93 % 0.0 in /  0 mm 0.00 W/m2 CLR
06:24 10.6 °F /  -11.9 °C 9.4 °F /  -12.6 °C 1020.1 in /  34540.6 hPa Calm     93 % 0.0 in /  0 mm 0.00 W/m2 CLR
06:29 10.6 °F /  -11.9 °C 9.4 °F /  -12.6 °C 1020.1 in /  34540.6 hPa Calm     93 % 0.0 in /  0 mm 0.00 W/m2 CLR
06:34 10.6 °F /  -11.9 °C 9.4 °F /  -12.6 °C 1020.1 in /  34540.6 hPa Calm     93 % 0.3 in /  7.62 mm 0.00 W/m2 RA
06:39 10.6 °F /  -11.9 °C 9.4 °F /  -12.6 °C 1020.1 in /  34540.6 hPa Calm     93 % 0.3 in /  7.62 mm 0.00 W/m2 CLR
06:44 11.1 °F /  -11.6 °C 10.0 °F /  -12.2 °C 1020.1 in /  34540.6 hPa Calm     93 % 0.3 in /  7.62 mm 0.00 W/m2 CLR
06:49 11.1 °F /  -11.6 °C 9.8 °F /  -12.3 °C 1020.1 in /  34540.6 hPa Calm     92 % 0.3 in /  7.62 mm 0.00 W/m2 CLR
06:54 11.1 °F /  -11.6 °C 10.0 °F /  -12.2 °C 1020.2 in /  34544 hPa Calm     93 % 0.3 in /  7.62 mm 0.00 W/m2 CLR
06:59 11.1 °F /  -11.6 °C 10.0 °F /  -12.2 °C 1020.2 in /  34544 hPa Calm     93 % 0.3 in /  7.62 mm 0.00 W/m2 CLR
07:04 11.1 °F /  -11.6 °C 10.0 °F /  -12.2 °C 1020.3 in /  34547.4 hPa Calm     93 % 0.3 in /  7.62 mm 0.00 W/m2 CLR
07:09 11.1 °F /  -11.6 °C 10.0 °F /  -12.2 °C 1020.2 in /  34544 hPa Calm     93 % 0.5 in /  12.7 mm 0.00 W/m2 RA
07:14 11.1 °F /  -11.6 °C 10.0 °F /  -12.2 °C 1020.3 in /  34547.4 hPa Calm     93 % 0.5 in /  12.7 mm 0.00 W/m2 RA
07:19 11.1 °F /  -11.6 °C 10.0 °F /  -12.2 °C 1020.3 in /  34547.4 hPa Calm     93 % 0.8 in /  20.32 mm 0.00 W/m2 RA
07:24 11.1 °F /  -11.6 °C 10.0 °F /  -12.2 °C 1020.3 in /  34547.4 hPa Calm     93 % 0.8 in /  20.32 mm 0.00 W/m2
07:29 11.1 °F /  -11.6 °C 10.0 °F /  -12.2 °C 1020.2 in /  34544 hPa Calm     93 % 0.8 in /  20.32 mm 0.00 W/m2 CLR
07:34 11.1 °F /  -11.6 °C 10.0 °F /  -12.2 °C 1020.1 in /  34540.6 hPa Calm     93 % 0.8 in /  20.32 mm 0.00 W/m2 RA
07:39 11.1 °F /  -11.6 °C 10.0 °F /  -12.2 °C 1020.1 in /  34540.6 hPa Calm     93 % 0.8 in /  20.32 mm 0.00 W/m2 CLR
07:44 11.1 °F /  -11.6 °C 10.0 °F /  -12.2 °C 1020.1 in /  34540.6 hPa Calm     93 % 0.8 in /  20.32 mm 0.00 W/m2 CLR
07:49 11.1 °F /  -11.6 °C 10.0 °F /  -12.2 °C 1020.0 in /  34537.2 hPa Calm     93 % 1.0 in /  25.4 mm 0.00 W/m2 RA
07:54 11.1 °F /  -11.6 °C 10.0 °F /  -12.2 °C 1020.0 in /  34537.2 hPa Calm     93 % 1.0 in /  25.4 mm 0.00 W/m2
07:59 11.1 °F /  -11.6 °C 10.0 °F /  -12.2 °C 1019.9 in /  34533.8 hPa Calm     93 % 1.0 in /  25.4 mm 0.00 W/m2 CLR
08:04 11.7 °F /  -11.3 °C 10.6 °F /  -11.9 °C 1019.9 in /  34533.8 hPa Calm     93 % 1.0 in /  25.4 mm 0.00 W/m2 OVC
08:09 11.7 °F /  -11.3 °C 10.6 °F /  -11.9 °C 1019.8 in /  34530.4 hPa Calm     93 % 1.0 in /  25.4 mm 0.00 W/m2 RA
08:14 11.7 °F /  -11.3 °C 10.6 °F /  -11.9 °C 1019.8 in /  34530.4 hPa Calm     93 % 0.8 in /  20.32 mm 7.00 W/m2 CLR
08:19 11.7 °F /  -11.3 °C 10.6 °F /  -11.9 °C 1019.7 in /  34527 hPa Calm     93 % 0.5 in /  12.7 mm 18.00 W/m2 BKN
08:24 12.2 °F /  -11 °C 11.1 °F /  -11.6 °C 1019.7 in /  34527 hPa Calm     93 % 0.5 in /  12.7 mm 19.00 W/m2 BKN
08:29 12.2 °F /  -11 °C 11.1 °F /  -11.6 °C 1019.8 in /  34530.4 hPa Calm     93 % 0.5 in /  12.7 mm 23.00 W/m2 BKN
08:34 12.2 °F /  -11 °C 11.1 °F /  -11.6 °C 1019.7 in /  34527 hPa Calm     93 % 0.5 in /  12.7 mm 28.00 W/m2 RA
08:39 12.2 °F /  -11 °C 11.1 °F /  -11.6 °C 1019.7 in /  34527 hPa Calm     93 % 0.5 in /  12.7 mm 46.00 W/m2 BKN
08:44 12.2 °F /  -11 °C 11.1 °F /  -11.6 °C 1019.7 in /  34527 hPa Calm     93 % 0.5 in /  12.7 mm 62.00 W/m2 SCT
08:49 12.2 °F /  -11 °C 11.1 °F /  -11.6 °C 1019.7 in /  34527 hPa Calm     93 % 0.5 in /  12.7 mm 67.00 W/m2 SCT
08:54 12.2 °F /  -11 °C 11.1 °F /  -11.6 °C 1019.8 in /  34530.4 hPa Calm     93 % 0.5 in /  12.7 mm 63.00 W/m2 SCT
08:59 12.2 °F /  -11 °C 11.1 °F /  -11.6 °C 1019.8 in /  34530.4 hPa Calm     93 % 0.5 in /  12.7 mm 88.00 W/m2 CLR
09:04 12.2 °F /  -11 °C 11.1 °F /  -11.6 °C 1019.9 in /  34533.8 hPa Calm     93 % 0.5 in /  12.7 mm 60.00 W/m2 SCT
09:09 12.2 °F /  -11 °C 11.1 °F /  -11.6 °C 1019.9 in /  34533.8 hPa Calm     93 % 0.3 in /  7.62 mm 86.00 W/m2 FEW
09:14 12.8 °F /  -10.7 °C 11.7 °F /  -11.3 °C 1020.0 in /  34537.2 hPa Calm     93 % 0.3 in /  7.62 mm 125.00 W/m2 FEW
09:19 12.8 °F /  -10.7 °C 11.7 °F /  -11.3 °C 1020.0 in /  34537.2 hPa Calm     93 % 0.3 in /  7.62 mm 171.00 W/m2 CLR
09:24 12.8 °F /  -10.7 °C 11.7 °F /  -11.3 °C 1020.0 in /  34537.2 hPa Calm     93 % 0.3 in /  7.62 mm 109.00 W/m2 CLR
09:29 13.3 °F /  -10.4 °C 12.2 °F /  -11 °C 1020.0 in /  34537.2 hPa Calm     93 % 0.3 in /  7.62 mm 137.00 W/m2 CLR
09:34 13.3 °F /  -10.4 °C 12.2 °F /  -11 °C 1020.1 in /  34540.6 hPa Calm     93 % 0.0 in /  0 mm 162.00 W/m2 CLR
09:39 13.9 °F /  -10.1 °C 12.8 °F /  -10.7 °C 1020.2 in /  34544 hPa Calm     93 % 0.0 in /  0 mm 134.00 W/m2 CLR
09:44 13.9 °F /  -10.1 °C 12.6 °F /  -10.8 °C 1020.2 in /  34544 hPa Calm     92 % 0.0 in /  0 mm 211.00 W/m2 CLR
09:49 13.9 °F /  -10.1 °C 12.6 °F /  -10.8 °C 1020.2 in /  34544 hPa Calm     92 % 0.0 in /  0 mm 146.00 W/m2 CLR
09:54 13.9 °F /  -10.1 °C 12.6 °F /  -10.8 °C 1020.2 in /  34544 hPa Calm     92 % 0.0 in /  0 mm 137.00 W/m2 CLR
09:59 13.9 °F /  -10.1 °C 12.6 °F /  -10.8 °C 1020.1 in /  34540.6 hPa Calm     92 % 0.0 in /  0 mm 137.00 W/m2 CLR
10:04 13.9 °F /  -10.1 °C 12.6 °F /  -10.8 °C 1020.2 in /  34544 hPa Calm     92 % 0.0 in /  0 mm 244.00 W/m2 CLR
10:09 13.9 °F /  -10.1 °C 12.6 °F /  -10.8 °C 1020.2 in /  34544 hPa Calm     92 % 0.0 in /  0 mm 241.00 W/m2 CLR
10:14 13.9 °F /  -10.1 °C 12.6 °F /  -10.8 °C 1020.2 in /  34544 hPa Calm     92 % 0.0 in /  0 mm 197.00 W/m2 CLR
10:19 14.4 °F /  -9.8 °C 13.2 °F /  -10.4 °C 1020.2 in /  34544 hPa Calm     92 % 0.0 in /  0 mm 186.00 W/m2 CLR
10:24 14.4 °F /  -9.8 °C 13.0 °F /  -10.6 °C 1020.2 in /  34544 hPa Calm     91 % 0.0 in /  0 mm 260.00 W/m2 CLR
10:29 14.4 °F /  -9.8 °C 13.0 °F /  -10.6 °C 1020.1 in /  34540.6 hPa Calm     91 % 0.0 in /  0 mm 323.00 W/m2 CLR
10:34 14.4 °F /  -9.8 °C 12.8 °F /  -10.7 °C 1020.1 in /  34540.6 hPa Calm     90 % 0.0 in /  0 mm 257.00 W/m2 CLR
10:39 15.0 °F /  -9.4 °C 13.2 °F /  -10.4 °C 1020.1 in /  34540.6 hPa Calm     89 % 0.0 in /  0 mm 452.00 W/m2 CLR
10:44 15.0 °F /  -9.4 °C 13.2 °F /  -10.4 °C 1020.0 in /  34537.2 hPa Calm     89 % 0.0 in /  0 mm 415.00 W/m2 CLR
10:49 15.0 °F /  -9.4 °C 13.0 °F /  -10.6 °C 1019.9 in /  34533.8 hPa Calm     88 % 0.0 in /  0 mm 436.00 W/m2 CLR
10:54 15.0 °F /  -9.4 °C 12.8 °F /  -10.7 °C 1019.9 in /  34533.8 hPa Calm     87 % 0.0 in /  0 mm 429.00 W/m2 CLR
10:59 15.0 °F /  -9.4 °C 12.8 °F /  -10.7 °C 1019.9 in /  34533.8 hPa Calm     87 % 0.0 in /  0 mm 432.00 W/m2 CLR
11:04 15.6 °F /  -9.1 °C 13.2 °F /  -10.4 °C 1019.8 in /  34530.4 hPa Calm     86 % 0.0 in /  0 mm 436.00 W/m2 CLR
11:09 15.6 °F /  -9.1 °C 13.1 °F /  -10.5 °C 1019.7 in /  34527 hPa Calm     85 % 0.0 in /  0 mm 443.00 W/m2 CLR
11:14 15.6 °F /  -9.1 °C 12.9 °F /  -10.6 °C 1019.8 in /  34530.4 hPa Calm     84 % 0.0 in /  0 mm 450.00 W/m2 CLR
11:19 15.6 °F /  -9.1 °C 12.9 °F /  -10.6 °C 1019.6 in /  34523.7 hPa Calm     84 % 0.0 in /  0 mm 461.00 W/m2 CLR
11:24 15.6 °F /  -9.1 °C 12.5 °F /  -10.8 °C 1019.6 in /  34523.7 hPa Calm     82 % 0.0 in /  0 mm 466.00 W/m2 CLR
11:29 16.1 °F /  -8.8 °C 12.8 °F /  -10.7 °C 1019.6 in /  34523.7 hPa Calm     81 % 0.0 in /  0 mm 480.00 W/m2 CLR
11:34 16.1 °F /  -8.8 °C 12.3 °F /  -10.9 °C 1019.6 in /  34523.7 hPa Calm     78 % 0.0 in /  0 mm 494.00 W/m2 CLR
11:39 16.1 °F /  -8.8 °C 12.4 °F /  -10.9 °C 1019.6 in /  34523.7 hPa Calm     79 % 0.0 in /  0 mm 503.00 W/m2 CLR
11:44 16.7 °F /  -8.5 °C 13.0 °F /  -10.6 °C 1019.4 in /  34516.9 hPa Calm     79 % 0.0 in /  0 mm 512.00 W/m2 CLR
11:49 16.7 °F /  -8.5 °C 13.2 °F /  -10.4 °C 1019.4 in /  34516.9 hPa Calm     80 % 0.0 in /  0 mm 515.00 W/m2 CLR
11:54 16.7 °F /  -8.5 °C 12.6 °F /  -10.8 °C 1019.4 in /  34516.9 hPa Calm     77 % 0.0 in /  0 mm 533.00 W/m2 CLR
11:59 17.2 °F /  -8.2 °C 12.9 °F /  -10.6 °C 1019.3 in /  34513.5 hPa Calm     76 % 0.0 in /  0 mm 538.00 W/m2 CLR
12:04 17.2 °F /  -8.2 °C 12.7 °F /  -10.7 °C 1019.3 in /  34513.5 hPa Calm     75 % 0.0 in /  0 mm 563.00 W/m2 CLR
12:09 17.8 °F /  -7.9 °C 13.5 °F /  -10.3 °C 1019.3 in /  34513.5 hPa Calm     76 % 0.0 in /  0 mm 561.00 W/m2 CLR
12:14 17.8 °F /  -7.9 °C 13.3 °F /  -10.4 °C 1019.3 in /  34513.5 hPa Calm     75 % 0.0 in /  0 mm 490.00 W/m2 CLR
12:19 17.8 °F /  -7.9 °C 13.5 °F /  -10.3 °C 1019.3 in /  34513.5 hPa Calm     76 % 0.0 in /  0 mm 566.00 W/m2 CLR
12:24 18.3 °F /  -7.6 °C 13.4 °F /  -10.3 °C 1019.2 in /  34510.1 hPa Calm     73 % 0.0 in /  0 mm 578.00 W/m2 CLR
12:29 18.3 °F /  -7.6 °C 13.2 °F /  -10.4 °C 1019.2 in /  34510.1 hPa Calm     72 % 0.0 in /  0 mm 587.00 W/m2 CLR
12:34 18.3 °F /  -7.6 °C 13.6 °F /  -10.2 °C 1019.1 in /  34506.7 hPa Calm     74 % 0.0 in /  0 mm 591.00 W/m2 CLR
12:39 18.3 °F /  -7.6 °C 13.6 °F /  -10.2 °C 1019.0 in /  34503.3 hPa Calm     74 % 0.0 in /  0 mm 598.00 W/m2 CLR
12:44 18.9 °F /  -7.3 °C 14.2 °F /  -9.9 °C 1019.1 in /  34506.7 hPa Calm     74 % 0.0 in /  0 mm 605.00 W/m2 CLR
12:49 18.9 °F /  -7.3 °C 13.9 °F /  -10.1 °C 1019.0 in /  34503.3 hPa Calm     73 % 0.0 in /  0 mm 608.00 W/m2 CLR
12:54 18.9 °F /  -7.3 °C 13.9 °F /  -10.1 °C 1018.9 in /  34500 hPa Calm     73 % 0.0 in /  0 mm 615.00 W/m2 CLR
12:59 19.4 °F /  -7 °C 14.5 °F /  -9.7 °C 1018.9 in /  34500 hPa Calm     73 % 0.0 in /  0 mm 624.00 W/m2 CLR
13:04 20.0 °F /  -6.7 °C 14.8 °F /  -9.6 °C 1018.7 in /  34493.2 hPa Calm     72 % 0.0 in /  0 mm 621.00 W/m2 CLR
13:09 20.0 °F /  -6.7 °C 14.6 °F /  -9.7 °C 1018.6 in /  34489.8 hPa Calm     71 % 0.0 in /  0 mm 608.00 W/m2 CLR
13:14 20.0 °F /  -6.7 °C 14.6 °F /  -9.7 °C 1018.5 in /  34486.4 hPa Calm     71 % 0.0 in /  0 mm 633.00 W/m2 CLR
13:19 20.0 °F /  -6.7 °C 14.1 °F /  -9.9 °C 1018.4 in /  34483 hPa Calm     69 % 0.0 in /  0 mm 638.00 W/m2 CLR
13:24 19.4 °F /  -7 °C 13.4 °F /  -10.3 °C 1018.3 in /  34479.6 hPa Calm     68 % 0.0 in /  0 mm 645.00 W/m2 CLR
13:29 19.4 °F /  -7 °C 13.6 °F /  -10.2 °C 1018.2 in /  34476.3 hPa Calm     69 % 0.0 in /  0 mm 647.00 W/m2 CLR
13:34 20.0 °F /  -6.7 °C 13.9 °F /  -10.1 °C 1018.1 in /  34472.9 hPa Calm     68 % 0.0 in /  0 mm 643.00 W/m2 CLR
13:39 20.0 °F /  -6.7 °C 14.1 °F /  -9.9 °C 1018.0 in /  34469.5 hPa Calm     69 % 0.0 in /  0 mm 561.00 W/m2 CLR
13:44 20.6 °F /  -6.3 °C 14.2 °F /  -9.9 °C 1017.9 in /  34466.1 hPa Calm     67 % 0.0 in /  0 mm 652.00 W/m2 CLR
Lo Temps de Massalio
Compliments of Weather Underground - 768 kb